Arch Cape, Oregon
Current Conditions -  °F | °C
As of 5:15 PM on Monday 26 Jan 2015 (Local Time) from KAST Reporting Station
Light Rain Light Rain  
Wind Chill: 53°   Ceiling: 1400
Heat Index: 53°   Visibility: 6mi
Dew Point: 50°   Wind: 14mph
Humidity: 89%   Direction: 240°WSW
Pressure: 29.96"   Gusts: 20mph
Location:  45.8°N, 123.96°W
Report Text: KAST 270115Z AUTO 24012G17KT 6SM -RA BR SCT009 BKN014 OVC020 12/10 A2996 RMK AO2 RAB12 CIG 008 RWY 08 P0000 T01170100
Loading
Personal Weather Stations






























Interactive Weather Map New forecast layout! Learn more

10-Day Weather Forecast

Advertisements
Track Severe Weather on mobile